Terminal Aerodrome Forecast
Issued by NWS

Home | Current Version | Previous Version | Graphics & Text | Print | Product List | Glossary On
Versions: 1 2 3 4 5 6 7 8 9 10 11 12 13 14 15
000
FTUS43 KGRB 300500
TAFAUW
TAF
KAUW 300534Z 3006/0106 03008KT P6SM BKN012
     FM301400 06005KT P6SM BKN015
     FM301900 12006KT P6SM SCT022
     FM302300 10004KT P6SM SCT030=

USA.gov is the U.S. government's official web portal to all federal, state and local government web resources and services.